createdAt,value
2022-11-16T00:00:02.925Z,50.79
2022-11-16T00:01:01.187Z,46.96
2022-11-16T00:01:59.200Z,49.23
2022-11-16T00:02:59.144Z,48.68
2022-11-16T00:03:59.112Z,50.08
2022-11-16T00:04:59.085Z,48.82
2022-11-16T00:05:59.051Z,48.04
2022-11-16T00:07:00.201Z,49.52
2022-11-16T00:07:59.039Z,48.68
2022-11-16T00:08:59.064Z,50.01
2022-11-16T00:09:59.052Z,47.41
2022-11-16T00:10:59.050Z,50.27
2022-11-16T00:11:58.946Z,48.92
2022-11-16T00:12:58.957Z,44.92
2022-11-16T00:13:58.933Z,49.72
2022-11-16T00:14:58.940Z,47.97
2022-11-16T00:15:58.939Z,52.11
2022-11-16T00:16:58.901Z,45.63
2022-11-16T00:17:58.876Z,48.27
2022-11-16T00:18:58.897Z,44.67
2022-11-16T00:19:58.881Z,44.22
2022-11-16T00:20:58.872Z,43.97
2022-11-16T00:21:58.850Z,47.69
2022-11-16T00:22:58.831Z,47.79
2022-11-16T00:23:58.844Z,53.23
2022-11-16T00:24:58.854Z,52.77
2022-11-16T00:25:58.921Z,45.90
2022-11-16T00:26:58.801Z,48.55
2022-11-16T00:27:58.842Z,53.53
2022-11-16T00:28:58.832Z,48.33
2022-11-16T00:29:58.868Z,51.24
2022-11-16T00:30:58.936Z,46.61
2022-11-16T00:31:58.822Z,52.14
2022-11-16T00:32:58.779Z,56.52
2022-11-16T00:33:58.825Z,51.25
2022-11-16T00:34:58.755Z,49.88
2022-11-16T00:35:58.792Z,52.92
2022-11-16T00:36:58.768Z,53.02
2022-11-16T00:37:58.709Z,50.30
2022-11-16T00:38:58.776Z,47.19
2022-11-16T00:39:59.738Z,52.23
2022-11-16T00:40:58.775Z,52.03
2022-11-16T00:41:58.705Z,48.07
2022-11-16T00:42:58.705Z,51.80
2022-11-16T00:43:58.713Z,52.20
2022-11-16T00:44:58.656Z,52.23
2022-11-16T00:45:58.707Z,50.61
2022-11-16T00:46:58.618Z,53.73
2022-11-16T00:48:00.589Z,44.61
2022-11-16T00:48:59.573Z,46.68
2022-11-16T00:49:58.645Z,53.18
2022-11-16T00:50:58.681Z,49.52
2022-11-16T00:51:58.614Z,50.59
2022-11-16T00:52:58.604Z,49.06
2022-11-16T00:53:58.552Z,49.16
2022-11-16T00:54:58.589Z,51.90
2022-11-16T00:55:58.539Z,50.83
2022-11-16T00:56:58.485Z,47.63
2022-11-16T00:58:32.529Z,46.07
2022-11-16T00:58:58.482Z,58.86
2022-11-16T01:00:33.062Z,46.65
2022-11-16T01:00:58.467Z,44.18
2022-11-16T01:01:58.396Z,43.64
2022-11-16T01:02:58.395Z,51.28
2022-11-16T01:03:58.393Z,49.79
2022-11-16T01:04:58.376Z,48.91
2022-11-16T01:05:58.385Z,52.33
2022-11-16T01:06:58.392Z,49.77
2022-11-16T01:07:58.353Z,48.94
2022-11-16T01:08:58.380Z,47.58
2022-11-16T01:09:58.307Z,44.53
2022-11-16T01:10:58.320Z,46.42
2022-11-16T01:11:58.284Z,45.36
2022-11-16T01:12:58.272Z,46.11
2022-11-16T01:13:58.293Z,48.64
2022-11-16T01:14:58.264Z,52.78
2022-11-16T01:15:58.235Z,49.27
2022-11-16T01:16:58.265Z,45.91
2022-11-16T01:17:58.262Z,45.22
2022-11-16T01:18:58.194Z,49.12
2022-11-16T01:19:58.204Z,45.82
2022-11-16T01:20:58.207Z,46.26
2022-11-16T01:21:58.184Z,47.91
2022-11-16T01:22:58.142Z,50.96
2022-11-16T01:23:58.172Z,53.16
2022-11-16T01:24:58.173Z,49.02
2022-11-16T01:25:58.129Z,49.30
2022-11-16T01:26:58.106Z,58.22
2022-11-16T01:27:58.142Z,51.01
2022-11-16T01:28:58.121Z,49.04
2022-11-16T01:29:58.095Z,49.76
2022-11-16T01:30:58.081Z,51.01
2022-11-16T01:31:58.078Z,47.53
2022-11-16T01:32:58.058Z,43.80
2022-11-16T01:33:58.038Z,43.79
2022-11-16T01:34:58.053Z,44.54
2022-11-16T01:35:58.022Z,52.59
2022-11-16T01:36:58.011Z,53.23
2022-11-16T01:37:58.009Z,51.21
2022-11-16T01:38:58.046Z,48.82
2022-11-16T01:39:57.963Z,52.37
2022-11-16T01:40:57.986Z,46.39
2022-11-16T01:41:57.961Z,46.69
2022-11-16T01:42:57.953Z,43.93
2022-11-16T01:43:57.929Z,48.44
2022-11-16T01:44:57.945Z,48.54
2022-11-16T01:45:57.961Z,50.18
2022-11-16T01:46:57.885Z,48.42
2022-11-16T01:47:57.962Z,48.72
2022-11-16T01:48:57.859Z,51.92
2022-11-16T01:49:57.916Z,49.00
2022-11-16T01:50:57.969Z,43.52
2022-11-16T01:51:57.845Z,48.15
2022-11-16T01:52:57.838Z,50.34
2022-11-16T01:53:57.825Z,52.17
2022-11-16T01:54:57.836Z,50.98
2022-11-16T01:55:57.798Z,49.95
2022-11-16T01:56:57.805Z,49.59
2022-11-16T01:57:57.803Z,47.59
2022-11-16T01:58:57.794Z,47.79
2022-11-16T01:59:57.761Z,51.16
2022-11-16T02:00:57.839Z,48.48
2022-11-16T02:01:57.727Z,52.10
2022-11-16T02:02:57.736Z,53.40
2022-11-16T02:03:57.689Z,52.63
2022-11-16T02:04:57.739Z,49.54
2022-11-16T02:05:57.683Z,45.43
2022-11-16T02:06:57.726Z,44.44
2022-11-16T02:07:57.683Z,47.29
2022-11-16T02:08:57.668Z,52.00
2022-11-16T02:09:57.672Z,52.18
2022-11-16T02:10:57.627Z,49.15
2022-11-16T02:11:57.640Z,48.52
2022-11-16T02:12:57.632Z,46.16
2022-11-16T02:13:57.594Z,54.79
2022-11-16T02:14:57.627Z,48.70
2022-11-16T02:15:57.588Z,54.85
2022-11-16T02:16:57.548Z,57.09
2022-11-16T02:17:57.554Z,55.74
2022-11-16T02:18:57.547Z,55.80
2022-11-16T02:19:57.533Z,55.28
2022-11-16T02:20:57.526Z,54.13
2022-11-16T02:21:57.517Z,53.86
2022-11-16T02:22:57.498Z,55.12
2022-11-16T02:23:57.472Z,51.81
2022-11-16T02:24:57.496Z,51.26
2022-11-16T02:25:57.497Z,50.98
2022-11-16T02:26:57.457Z,53.67
2022-11-16T02:27:57.448Z,52.68
2022-11-16T02:28:57.433Z,48.79
2022-11-16T02:29:57.447Z,53.72
2022-11-16T02:30:57.425Z,50.46
2022-11-16T02:31:57.410Z,51.47
2022-11-16T02:32:57.451Z,53.49
2022-11-16T02:33:57.385Z,57.47
2022-11-16T02:34:57.455Z,50.41
2022-11-16T02:35:57.370Z,49.23
2022-11-16T02:36:57.329Z,51.28
2022-11-16T02:37:57.335Z,55.36
2022-11-16T02:38:57.352Z,57.68
2022-11-16T02:39:57.325Z,48.19
2022-11-16T02:40:57.298Z,44.46
2022-11-16T02:41:57.288Z,47.40
2022-11-16T02:42:57.353Z,49.82
2022-11-16T02:43:57.239Z,49.81
2022-11-16T02:44:57.271Z,50.12
2022-11-16T02:45:57.249Z,49.50
2022-11-16T02:46:57.213Z,47.81
2022-11-16T02:47:57.212Z,55.72
2022-11-16T02:48:57.254Z,52.90
2022-11-16T02:49:57.231Z,49.89
2022-11-16T02:50:57.172Z,48.16
2022-11-16T02:51:57.189Z,52.78
2022-11-16T02:52:57.145Z,48.23
2022-11-16T02:53:57.167Z,51.69
2022-11-16T02:54:57.167Z,49.94
2022-11-16T02:55:57.197Z,51.61
2022-11-16T02:56:57.123Z,49.82
2022-11-16T02:57:57.092Z,51.79
2022-11-16T02:58:57.126Z,52.43
2022-11-16T02:59:57.053Z,51.74
2022-11-16T03:00:57.132Z,51.10
2022-11-16T03:01:57.078Z,49.63
2022-11-16T03:02:57.025Z,49.12
2022-11-16T03:03:57.021Z,51.21
2022-11-16T03:04:57.037Z,48.66
2022-11-16T03:05:57.046Z,47.82
2022-11-16T03:06:57.077Z,46.22
2022-11-16T03:07:56.997Z,48.03
2022-11-16T03:08:56.982Z,53.76
2022-11-16T03:09:56.955Z,49.91
2022-11-16T03:10:56.980Z,48.01
2022-11-16T03:11:57.001Z,49.22
2022-11-16T03:12:56.917Z,48.22
2022-11-16T03:13:56.915Z,44.98
2022-11-16T03:14:56.940Z,49.27
2022-11-16T03:15:56.888Z,52.56
2022-11-16T03:16:56.918Z,51.48
2022-11-16T03:17:56.883Z,48.64
2022-11-16T03:18:56.833Z,51.83
2022-11-16T03:19:56.842Z,54.59
2022-11-16T03:20:56.857Z,48.60
2022-11-16T03:21:56.843Z,49.47
2022-11-16T03:22:56.783Z,48.66
2022-11-16T03:23:56.807Z,52.53
2022-11-16T03:24:56.771Z,50.71
2022-11-16T03:25:56.773Z,49.28
2022-11-16T03:26:56.769Z,49.29
2022-11-16T03:27:56.767Z,51.75
2022-11-16T03:28:56.710Z,47.38
2022-11-16T03:29:56.739Z,49.67
2022-11-16T03:30:56.760Z,55.90
2022-11-16T03:31:56.701Z,51.30
2022-11-16T03:32:56.685Z,53.05
2022-11-16T03:33:56.718Z,55.48
2022-11-16T03:34:56.700Z,55.42
2022-11-16T03:35:56.699Z,50.63
2022-11-16T03:36:56.655Z,47.52
2022-11-16T03:37:56.644Z,50.97
2022-11-16T03:38:56.664Z,51.61
2022-11-16T03:39:56.615Z,57.20
2022-11-16T03:40:56.615Z,53.70
2022-11-16T03:41:56.615Z,50.98
2022-11-16T03:42:56.557Z,54.61
2022-11-16T03:43:56.561Z,51.39
2022-11-16T03:44:56.581Z,52.11
2022-11-16T03:45:56.578Z,52.52
2022-11-16T03:46:56.513Z,51.89
2022-11-16T03:47:56.542Z,53.28
2022-11-16T03:48:56.491Z,51.91
2022-11-16T03:49:56.519Z,54.29
2022-11-16T03:50:56.517Z,51.00
2022-11-16T03:51:56.474Z,51.43
2022-11-16T03:52:56.445Z,53.49
2022-11-16T03:53:56.450Z,50.44
2022-11-16T03:54:56.467Z,51.76
2022-11-16T03:55:56.402Z,52.62
2022-11-16T03:56:56.450Z,52.41
2022-11-16T03:57:56.421Z,53.79
2022-11-16T03:58:56.401Z,54.91
2022-11-16T03:59:56.394Z,54.90
2022-11-16T04:00:56.430Z,55.19
2022-11-16T04:01:56.414Z,54.68
2022-11-16T04:02:56.339Z,55.59
2022-11-16T04:03:56.351Z,55.91
2022-11-16T04:04:56.356Z,54.28
2022-11-16T04:05:56.327Z,56.78
2022-11-16T04:06:57.343Z,57.34
2022-11-16T04:07:56.339Z,58.09
2022-11-16T04:08:56.300Z,55.64
2022-11-16T04:09:56.262Z,56.47
2022-11-16T04:10:56.263Z,54.18
2022-11-16T04:11:56.268Z,53.19
2022-11-16T04:12:56.238Z,58.45
2022-11-16T04:13:56.236Z,59.76
2022-11-16T04:14:56.222Z,56.32
2022-11-16T04:15:56.201Z,56.58
2022-11-16T04:16:56.209Z,56.04
2022-11-16T04:17:56.196Z,56.59
2022-11-16T04:18:56.183Z,55.85
2022-11-16T04:19:58.241Z,56.35
2022-11-16T04:20:57.174Z,57.07
2022-11-16T04:21:56.143Z,55.75
2022-11-16T04:22:56.183Z,58.46
2022-11-16T04:23:56.181Z,56.82
2022-11-16T04:24:56.143Z,57.26
2022-11-16T04:25:56.222Z,55.90
2022-11-16T04:26:56.078Z,56.28
2022-11-16T04:27:56.081Z,56.04
2022-11-16T04:28:56.058Z,57.65
2022-11-16T04:29:56.090Z,55.25
2022-11-16T04:30:56.056Z,56.69
2022-11-16T04:31:56.016Z,56.44
2022-11-16T04:32:55.991Z,56.99
2022-11-16T04:33:56.090Z,57.39
2022-11-16T04:34:56.186Z,57.09
2022-11-16T04:35:56.114Z,58.83
2022-11-16T04:36:56.035Z,59.06
2022-11-16T04:37:56.144Z,57.47
2022-11-16T04:38:56.114Z,60.07
2022-11-16T04:39:55.976Z,58.94
2022-11-16T04:40:55.970Z,56.68
2022-11-16T04:41:55.977Z,56.23
2022-11-16T04:42:55.927Z,55.72
2022-11-16T04:43:55.863Z,56.79
2022-11-16T04:44:55.904Z,57.89
2022-11-16T04:45:55.866Z,55.69
2022-11-16T04:46:55.826Z,58.02
2022-11-16T04:47:55.864Z,55.57
2022-11-16T04:48:55.863Z,57.06
2022-11-16T04:49:55.820Z,57.66
2022-11-16T04:50:55.807Z,57.26
2022-11-16T04:51:56.816Z,60.52
2022-11-16T04:52:55.761Z,57.38
2022-11-16T04:53:55.856Z,62.19
2022-11-16T04:54:55.805Z,59.74
2022-11-16T04:56:00.715Z,59.60
2022-11-16T04:56:57.741Z,56.30
2022-11-16T04:57:55.714Z,56.10
2022-11-16T04:58:55.724Z,60.50
2022-11-16T04:59:55.721Z,57.19
2022-11-16T05:00:55.764Z,60.62
2022-11-16T05:01:55.676Z,59.07
2022-11-16T05:03:00.783Z,57.47
2022-11-16T05:04:24.115Z,55.42
2022-11-16T05:04:55.639Z,56.10
2022-11-16T05:05:55.627Z,58.34
2022-11-16T05:06:55.725Z,62.60
2022-11-16T05:07:55.703Z,55.98
2022-11-16T05:08:55.678Z,57.26
2022-11-16T05:09:55.603Z,57.24
2022-11-16T05:10:55.599Z,60.98
2022-11-16T05:11:55.596Z,57.43
2022-11-16T05:12:55.562Z,59.29
2022-11-16T05:13:55.548Z,56.73
2022-11-16T05:14:55.533Z,57.90
2022-11-16T05:15:55.505Z,57.12
2022-11-16T05:16:55.541Z,60.44
2022-11-16T05:17:55.504Z,57.55
2022-11-16T05:18:55.490Z,58.39
2022-11-16T05:19:55.470Z,62.89
2022-11-16T05:20:55.478Z,57.90
2022-11-16T05:21:55.481Z,63.89
2022-11-16T05:22:55.434Z,57.63
2022-11-16T05:23:55.509Z,61.66
2022-11-16T05:24:55.538Z,59.59
2022-11-16T05:25:55.530Z,59.18
2022-11-16T05:26:55.642Z,59.10
2022-11-16T05:27:55.559Z,59.82
2022-11-16T05:28:55.534Z,58.10
2022-11-16T05:29:55.483Z,59.34
2022-11-16T05:30:55.616Z,62.42
2022-11-16T05:31:56.376Z,60.32
2022-11-16T05:32:55.565Z,58.90
2022-11-16T05:33:55.381Z,62.61
2022-11-16T05:34:55.345Z,59.45
2022-11-16T05:35:55.517Z,61.14
2022-11-16T05:36:55.439Z,59.84
2022-11-16T05:37:55.649Z,59.96
2022-11-16T05:38:56.461Z,60.03
2022-11-16T05:39:56.300Z,59.82
2022-11-16T05:40:55.414Z,59.95
2022-11-16T05:41:55.432Z,64.04
2022-11-16T05:42:55.628Z,60.42
2022-11-16T05:43:55.330Z,63.24
2022-11-16T05:44:55.266Z,60.78
2022-11-16T05:45:55.329Z,63.92
2022-11-16T05:46:55.249Z,62.80
2022-11-16T05:47:55.265Z,62.82
2022-11-16T05:48:55.215Z,59.32
2022-11-16T05:49:55.385Z,63.38
2022-11-16T05:50:55.318Z,61.70
2022-11-16T05:51:55.150Z,62.02
2022-11-16T05:52:55.131Z,63.28
2022-11-16T05:53:55.280Z,60.82
2022-11-16T05:54:55.278Z,61.50
2022-11-16T05:55:55.247Z,62.51
2022-11-16T05:56:55.133Z,60.64
2022-11-16T05:57:55.047Z,64.30
2022-11-16T05:58:55.068Z,62.28
2022-11-16T05:59:55.000Z,62.92
2022-11-16T06:00:55.026Z,61.63
2022-11-16T06:01:55.181Z,60.58
2022-11-16T06:02:55.068Z,61.48
2022-11-16T06:03:55.068Z,60.46
2022-11-16T06:04:55.168Z,58.41
2022-11-16T06:05:55.121Z,57.22
2022-11-16T06:06:55.100Z,62.60
2022-11-16T06:07:55.086Z,57.43
2022-11-16T06:08:55.036Z,62.90
2022-11-16T06:09:54.997Z,57.91
2022-11-16T06:10:55.072Z,62.35
2022-11-16T06:11:55.058Z,63.91
2022-11-16T06:12:54.991Z,61.34
2022-11-16T06:13:55.068Z,59.84
2022-11-16T06:14:55.250Z,59.83
2022-11-16T06:15:55.969Z,59.24
2022-11-16T06:16:56.126Z,56.17
2022-11-16T06:17:56.624Z,58.83
2022-11-16T06:18:55.570Z,60.22
2022-11-16T06:19:56.001Z,60.25
2022-11-16T06:20:55.653Z,60.24
2022-11-16T06:21:55.858Z,61.50
2022-11-16T06:22:55.701Z,60.43
2022-11-16T06:23:56.429Z,61.37
2022-11-16T06:24:56.336Z,59.83
2022-11-16T06:25:55.692Z,60.53
2022-11-16T06:26:56.110Z,62.04
2022-11-16T06:27:55.953Z,62.67
2022-11-16T06:28:56.202Z,61.98
2022-11-16T06:29:57.207Z,59.76
2022-11-16T06:30:55.408Z,58.73
2022-11-16T06:31:55.649Z,60.35
2022-11-16T06:32:55.821Z,58.73
2022-11-16T06:34:30.609Z,61.25
2022-11-16T06:34:54.744Z,61.95
2022-11-16T06:35:54.730Z,62.92
2022-11-16T06:36:55.673Z,63.70
2022-11-16T06:37:54.713Z,59.41
2022-11-16T06:41:54.361Z,63.60
2022-11-16T06:42:54.365Z,58.01
2022-11-16T06:43:54.276Z,62.44
2022-11-16T06:44:54.151Z,60.70
2022-11-16T06:45:54.163Z,59.09
2022-11-16T06:46:54.332Z,62.45
2022-11-16T06:47:54.407Z,60.57
2022-11-16T06:48:54.169Z,60.11
2022-11-16T06:49:54.074Z,61.50
2022-11-16T06:50:54.083Z,63.15
2022-11-16T06:51:54.124Z,60.51
2022-11-16T06:52:53.963Z,60.59
2022-11-16T06:53:53.903Z,64.64
2022-11-16T06:54:53.892Z,60.64
2022-11-16T06:55:53.876Z,59.19
2022-11-16T06:56:53.908Z,61.17
2022-11-16T06:57:53.893Z,60.92
2022-11-16T06:58:53.890Z,61.45
2022-11-16T06:59:53.861Z,59.14
2022-11-16T07:00:53.840Z,60.37
2022-11-16T07:01:53.903Z,62.97
2022-11-16T07:02:53.819Z,59.41
2022-11-16T07:03:53.907Z,60.55
2022-11-16T07:04:53.987Z,60.42
2022-11-16T07:05:53.784Z,60.00
2022-11-16T07:06:53.846Z,58.48
2022-11-16T07:07:53.763Z,59.01
2022-11-16T07:08:53.747Z,58.22
2022-11-16T07:09:53.737Z,59.32
2022-11-16T07:10:53.734Z,61.14
2022-11-16T07:11:53.732Z,60.71
2022-11-16T07:12:53.707Z,60.26
2022-11-16T07:13:53.685Z,58.07
2022-11-16T07:14:53.689Z,60.91
2022-11-16T07:15:53.673Z,58.96
2022-11-16T07:16:59.062Z,62.80
2022-11-16T07:17:55.648Z,63.69
2022-11-16T07:18:53.628Z,59.30
2022-11-16T07:19:53.722Z,55.70
2022-11-16T07:20:53.611Z,58.25
2022-11-16T07:21:53.597Z,59.97
2022-11-16T07:22:53.601Z,56.50
2022-11-16T07:23:53.592Z,58.99
2022-11-16T07:24:53.590Z,59.38
2022-11-16T07:25:53.553Z,60.00
2022-11-16T07:26:53.547Z,59.91
2022-11-16T07:27:53.546Z,57.14
2022-11-16T07:28:53.530Z,60.31
2022-11-16T07:29:53.549Z,61.23
2022-11-16T07:30:53.494Z,57.34
2022-11-16T07:31:53.493Z,56.79
2022-11-16T07:32:53.485Z,56.45
2022-11-16T07:33:53.487Z,57.06
2022-11-16T07:34:53.480Z,58.87
2022-11-16T07:35:53.726Z,60.82
2022-11-16T07:36:53.432Z,59.63
2022-11-16T07:37:53.424Z,58.06
2022-11-16T07:38:53.420Z,60.57
2022-11-16T07:39:53.426Z,59.75
2022-11-16T07:40:53.412Z,56.79
2022-11-16T07:41:53.408Z,53.62
2022-11-16T07:42:53.373Z,60.79
2022-11-16T07:43:53.551Z,59.39
2022-11-16T07:44:53.369Z,57.97
2022-11-16T07:45:53.335Z,62.16
2022-11-16T07:46:53.323Z,61.43
2022-11-16T07:47:53.365Z,59.58
2022-11-16T07:48:53.310Z,60.89
2022-11-16T07:49:53.311Z,63.66
2022-11-16T07:50:53.286Z,57.46
2022-11-16T07:51:53.488Z,58.26
2022-11-16T07:52:53.290Z,58.12
2022-11-16T07:53:53.251Z,59.44
2022-11-16T07:54:53.251Z,58.79
2022-11-16T07:55:53.264Z,58.85
2022-11-16T07:56:53.219Z,55.72
2022-11-16T07:57:53.685Z,59.58
2022-11-16T07:58:54.206Z,56.99
2022-11-16T07:59:53.194Z,59.76
2022-11-16T08:00:53.173Z,58.87
2022-11-16T08:01:53.205Z,57.55
2022-11-16T08:02:53.186Z,57.71
2022-11-16T08:03:53.155Z,57.31
2022-11-16T08:04:53.122Z,57.97
2022-11-16T08:05:53.123Z,56.95
2022-11-16T08:06:53.184Z,58.91
2022-11-16T08:07:53.105Z,61.09
2022-11-16T08:08:58.009Z,58.15
2022-11-16T08:09:55.115Z,61.56
2022-11-16T08:10:53.062Z,60.34
2022-11-16T08:11:53.046Z,61.09
2022-11-16T08:12:53.037Z,61.39
2022-11-16T08:13:53.072Z,58.43
2022-11-16T08:14:53.035Z,57.36
2022-11-16T08:15:52.997Z,56.50
2022-11-16T08:16:52.986Z,54.28
2022-11-16T08:17:53.032Z,62.09
2022-11-16T08:18:52.974Z,54.07
2022-11-16T08:19:52.983Z,58.40
2022-11-16T08:20:52.949Z,58.25
2022-11-16T08:21:52.945Z,56.11
2022-11-16T08:22:52.951Z,56.53
2022-11-16T08:23:58.196Z,59.08
2022-11-16T08:24:54.918Z,57.24
2022-11-16T08:25:52.915Z,60.02
2022-11-16T08:26:52.877Z,58.74
2022-11-16T08:27:52.909Z,55.27
2022-11-16T08:28:52.878Z,59.12
2022-11-16T08:29:52.852Z,57.40
2022-11-16T08:30:54.006Z,57.18
2022-11-16T08:31:53.838Z,55.60
2022-11-16T08:32:52.824Z,54.92
2022-11-16T08:33:52.813Z,61.62
2022-11-16T08:34:52.795Z,57.65
2022-11-16T08:35:52.790Z,62.72
2022-11-16T08:36:52.778Z,60.22
2022-11-16T08:37:52.768Z,57.99
2022-11-16T08:38:52.764Z,57.83
2022-11-16T08:39:52.847Z,57.18
2022-11-16T08:40:52.742Z,55.69
2022-11-16T08:41:52.748Z,56.09
2022-11-16T08:42:52.702Z,59.53
2022-11-16T08:43:52.685Z,56.77
2022-11-16T08:44:52.680Z,60.73
2022-11-16T08:45:52.680Z,57.89
2022-11-16T08:46:52.691Z,59.15
2022-11-16T08:48:03.150Z,59.56
2022-11-16T08:48:53.632Z,59.23
2022-11-16T08:50:11.545Z,58.15
2022-11-16T08:51:16.094Z,60.81
2022-11-16T08:51:54.615Z,55.77
2022-11-16T08:52:52.601Z,57.60
2022-11-16T08:53:52.560Z,57.72
2022-11-16T08:54:52.570Z,59.34
2022-11-16T08:55:52.696Z,59.93
2022-11-16T08:56:52.546Z,62.59
2022-11-16T08:57:52.559Z,61.76
2022-11-16T08:58:57.828Z,58.91
2022-11-16T08:59:54.546Z,59.59
2022-11-16T09:00:52.523Z,59.07
2022-11-16T09:01:52.576Z,58.74
2022-11-16T09:02:52.486Z,59.60
2022-11-16T09:03:52.489Z,60.98
2022-11-16T09:04:52.486Z,58.10
2022-11-16T09:05:52.456Z,57.46
2022-11-16T09:06:52.528Z,57.37
2022-11-16T09:07:52.445Z,57.21
2022-11-16T09:08:52.435Z,60.69
2022-11-16T09:09:52.420Z,57.68
2022-11-16T09:10:52.426Z,55.35
2022-11-16T09:14:19.706Z,59.55
2022-11-16T09:15:19.694Z,58.63
2022-11-16T09:16:19.673Z,58.62
2022-11-16T09:17:23.104Z,54.68
2022-11-16T09:18:20.661Z,56.64
2022-11-16T09:19:19.655Z,57.91
2022-11-16T09:20:19.666Z,63.56
2022-11-16T09:21:19.671Z,59.51
2022-11-16T09:22:19.616Z,56.31
2022-11-16T09:23:25.059Z,58.14
2022-11-16T09:24:21.622Z,61.35
2022-11-16T09:25:19.598Z,58.45
2022-11-16T09:26:19.576Z,60.55
2022-11-16T09:27:19.585Z,59.02
2022-11-16T09:28:51.593Z,58.62
2022-11-16T09:29:19.564Z,54.18
2022-11-16T09:30:19.567Z,60.31
2022-11-16T09:31:23.370Z,59.14
2022-11-16T09:32:20.562Z,59.92
2022-11-16T09:33:19.496Z,58.55
2022-11-16T09:34:19.493Z,56.65
2022-11-16T09:35:19.495Z,61.66
2022-11-16T09:36:19.477Z,54.78
2022-11-16T09:37:19.465Z,61.63
2022-11-16T09:38:26.941Z,55.62
2022-11-16T09:39:42.425Z,61.71
2022-11-16T09:40:20.426Z,63.72
2022-11-16T09:41:19.476Z,62.14
2022-11-16T09:42:19.404Z,56.62
2022-11-16T09:43:19.398Z,57.26
2022-11-16T09:44:19.377Z,58.25
2022-11-16T09:45:19.381Z,57.98
2022-11-16T09:46:19.397Z,60.85
2022-11-16T09:47:19.355Z,62.11
2022-11-16T09:48:19.332Z,59.91
2022-11-16T09:49:19.336Z,57.82
2022-11-16T09:50:19.354Z,59.00
2022-11-16T09:51:21.924Z,57.04
2022-11-16T09:52:19.322Z,57.15
2022-11-16T09:53:19.313Z,61.07
2022-11-16T09:54:19.271Z,56.96
2022-11-16T09:55:19.303Z,58.16
2022-11-16T09:56:22.103Z,59.61
2022-11-16T09:57:20.244Z,61.50
2022-11-16T09:58:19.215Z,61.60
2022-11-16T09:59:19.230Z,59.80
2022-11-16T10:00:19.246Z,59.43
2022-11-16T10:01:19.248Z,58.66
2022-11-16T10:02:19.204Z,58.25
2022-11-16T10:03:19.187Z,60.86
2022-11-16T10:04:19.193Z,58.53
2022-11-16T10:05:19.156Z,58.79
2022-11-16T10:06:19.182Z,58.18
2022-11-16T10:07:19.177Z,59.43
2022-11-16T10:08:19.112Z,59.19
2022-11-16T10:09:19.133Z,57.22
2022-11-16T10:10:19.107Z,59.44
2022-11-16T10:11:19.102Z,59.12
2022-11-16T10:12:19.075Z,58.95
2022-11-16T10:13:19.092Z,56.71
2022-11-16T10:14:19.074Z,61.48
2022-11-16T10:15:19.069Z,57.57
2022-11-16T10:16:19.138Z,58.80
2022-11-16T10:17:19.021Z,59.06
2022-11-16T10:18:19.001Z,59.78
2022-11-16T10:19:19.008Z,60.47
2022-11-16T10:20:19.073Z,58.93
2022-11-16T10:21:19.050Z,57.01
2022-11-16T10:22:18.973Z,59.78
2022-11-16T10:23:18.953Z,60.81
2022-11-16T10:24:18.977Z,57.92
2022-11-16T10:25:18.972Z,59.75
2022-11-16T10:26:18.942Z,60.49
2022-11-16T10:27:21.969Z,60.68
2022-11-16T10:28:19.906Z,57.90
2022-11-16T10:29:18.884Z,56.88
2022-11-16T10:30:18.879Z,58.93
2022-11-16T10:31:18.863Z,58.65
2022-11-16T10:32:18.955Z,62.30
2022-11-16T10:33:18.864Z,63.10
2022-11-16T10:34:18.859Z,58.57
2022-11-16T10:35:18.841Z,58.50
2022-11-16T10:36:18.811Z,57.51
2022-11-16T10:37:18.817Z,61.10
2022-11-16T10:38:18.771Z,59.16
2022-11-16T10:39:18.793Z,59.56
2022-11-16T10:40:18.791Z,61.64
2022-11-16T10:41:18.798Z,60.19
2022-11-16T10:42:18.793Z,58.60
2022-11-16T10:43:18.753Z,60.71
2022-11-16T10:44:18.774Z,63.82
2022-11-16T10:45:18.714Z,59.08
2022-11-16T10:46:18.719Z,60.04
2022-11-16T10:47:18.719Z,58.01
2022-11-16T10:48:18.806Z,60.74
2022-11-16T10:49:18.663Z,59.85
2022-11-16T10:50:18.720Z,59.76
2022-11-16T10:51:18.695Z,59.73
2022-11-16T10:52:18.650Z,60.78
2022-11-16T10:53:18.632Z,60.53
2022-11-16T10:54:18.610Z,57.67
2022-11-16T10:55:18.634Z,58.72
2022-11-16T10:56:18.601Z,61.14
2022-11-16T10:57:18.620Z,60.56
2022-11-16T10:58:18.580Z,61.05
2022-11-16T10:59:18.603Z,58.67
2022-11-16T11:00:22.241Z,62.28
2022-11-16T11:01:19.585Z,59.36
2022-11-16T11:02:18.538Z,62.53
2022-11-16T11:03:18.553Z,58.39
2022-11-16T11:04:18.499Z,58.83
2022-11-16T11:05:18.506Z,59.44
2022-11-16T11:06:18.514Z,61.13
2022-11-16T11:07:18.584Z,57.68
2022-11-16T11:08:18.450Z,57.76
2022-11-16T11:09:18.476Z,59.22
2022-11-16T11:10:18.485Z,57.65
2022-11-16T11:11:18.436Z,59.28
2022-11-16T11:12:18.416Z,60.37
2022-11-16T11:13:18.415Z,62.03
2022-11-16T11:14:18.400Z,59.46
2022-11-16T11:15:24.280Z,60.92
2022-11-16T11:16:20.441Z,61.30
2022-11-16T11:17:18.350Z,57.88
2022-11-16T11:18:18.384Z,61.76
2022-11-16T11:19:18.352Z,62.28
2022-11-16T11:20:18.459Z,60.68
2022-11-16T11:21:18.331Z,59.78
2022-11-16T11:22:18.331Z,58.10
2022-11-16T11:23:18.300Z,58.28
2022-11-16T11:24:43.504Z,60.01
2022-11-16T11:25:20.324Z,62.08
2022-11-16T11:26:18.275Z,59.31
2022-11-16T11:27:18.269Z,60.92
2022-11-16T11:28:18.243Z,60.35
2022-11-16T11:29:18.252Z,62.30
2022-11-16T11:30:18.259Z,58.53
2022-11-16T11:31:18.241Z,55.57
2022-11-16T11:32:23.892Z,58.94
2022-11-16T11:33:20.434Z,60.40
2022-11-16T11:34:18.173Z,60.86
2022-11-16T11:35:18.173Z,60.49
2022-11-16T11:36:18.167Z,61.18
2022-11-16T11:37:18.155Z,61.14
2022-11-16T11:38:18.196Z,59.60
2022-11-16T11:39:18.131Z,60.03
2022-11-16T11:40:18.104Z,62.48
2022-11-16T11:41:18.106Z,57.23
2022-11-16T11:42:18.095Z,59.51
2022-11-16T11:43:19.003Z,57.79
2022-11-16T11:44:19.067Z,60.29
2022-11-16T11:45:18.058Z,59.23
2022-11-16T11:46:18.034Z,62.07
2022-11-16T11:47:55.805Z,63.91
2022-11-16T11:48:20.045Z,59.41
2022-11-16T11:49:18.011Z,60.15
2022-11-16T11:50:17.999Z,61.70
2022-11-16T11:51:18.007Z,61.01
2022-11-16T11:52:18.069Z,61.58
2022-11-16T11:53:18.006Z,61.20
2022-11-16T11:54:17.953Z,61.28
2022-11-16T11:55:17.985Z,61.17
2022-11-16T11:56:17.972Z,58.65
2022-11-16T11:57:17.925Z,59.67
2022-11-16T11:58:17.925Z,61.51
2022-11-16T11:59:17.916Z,62.26
2022-11-16T12:00:17.941Z,63.18
2022-11-16T12:01:22.304Z,60.84
2022-11-16T12:02:19.919Z,61.71
2022-11-16T12:03:17.930Z,61.79
2022-11-16T12:04:17.887Z,61.27
2022-11-16T12:05:17.875Z,63.47
2022-11-16T12:06:17.884Z,62.00
2022-11-16T12:07:17.900Z,61.83
2022-11-16T12:08:17.899Z,62.35
2022-11-16T12:09:17.821Z,60.20
2022-11-16T12:10:17.850Z,60.06
2022-11-16T12:11:17.796Z,61.46
2022-11-16T12:12:17.756Z,59.67
2022-11-16T12:13:17.781Z,57.95
2022-11-16T12:14:17.765Z,59.77
2022-11-16T12:15:17.738Z,60.63
2022-11-16T12:16:17.782Z,63.46
2022-11-16T12:17:17.765Z,62.14
2022-11-16T12:18:17.743Z,61.55
2022-11-16T12:19:17.710Z,61.33
2022-11-16T12:20:17.737Z,61.56
2022-11-16T12:21:17.683Z,61.35
2022-11-16T12:22:17.676Z,62.46
2022-11-16T12:23:17.673Z,63.42
2022-11-16T12:24:17.745Z,63.09
2022-11-16T12:25:17.667Z,61.87
2022-11-16T12:26:17.660Z,64.44
2022-11-16T12:27:17.641Z,62.22
2022-11-16T12:28:17.649Z,58.18
2022-11-16T12:29:17.620Z,61.36
2022-11-16T12:30:17.635Z,63.90
2022-11-16T12:31:17.622Z,60.09
2022-11-16T12:32:17.558Z,61.89
2022-11-16T12:33:17.544Z,63.38
2022-11-16T12:34:17.560Z,66.62
2022-11-16T12:35:17.545Z,63.57
2022-11-16T12:36:17.507Z,63.56
2022-11-16T12:37:17.512Z,65.99
2022-11-16T12:38:23.163Z,62.42
2022-11-16T12:39:19.483Z,62.72
2022-11-16T12:40:17.685Z,61.73
2022-11-16T12:41:17.504Z,60.45
2022-11-16T12:42:17.473Z,62.50
2022-11-16T12:43:17.467Z,63.17
2022-11-16T12:44:17.443Z,61.77
2022-11-16T12:45:17.418Z,64.24
2022-11-16T12:46:17.426Z,61.56
2022-11-16T12:47:17.394Z,62.24
2022-11-16T12:48:17.424Z,62.50
2022-11-16T12:49:17.378Z,63.22
2022-11-16T12:50:17.396Z,61.72
2022-11-16T12:51:17.358Z,61.91
2022-11-16T12:52:17.386Z,59.67
2022-11-16T12:53:17.424Z,63.00
2022-11-16T12:54:17.345Z,61.35
2022-11-16T12:55:26.307Z,63.02
2022-11-16T12:56:19.353Z,62.65
2022-11-16T12:57:17.295Z,60.89